createdAt,value
2023-01-11T00:02:59.808Z,8.90
2023-01-11T00:06:02.620Z,8.90
2023-01-11T00:09:05.484Z,6.60
2023-01-11T00:12:12.318Z,9.80
2023-01-11T00:15:16.210Z,9.90
2023-01-11T00:18:19.060Z,8.90
2023-01-11T00:21:22.492Z,8.90
2023-01-11T00:24:25.290Z,8.90
2023-01-11T00:27:29.540Z,9.20
2023-01-11T00:30:32.818Z,9.80
2023-01-11T00:33:35.991Z,7.20
2023-01-11T00:36:38.950Z,8.90
2023-01-11T00:39:41.849Z,8.90
2023-01-11T00:43:04.007Z,8.90
2023-01-11T00:46:30.078Z,8.80
2023-01-11T00:49:33.893Z,8.80
2023-01-11T00:52:36.807Z,8.80
2023-01-11T00:55:39.727Z,8.80
2023-01-11T00:58:43.919Z,8.80
2023-01-11T01:01:46.793Z,8.80
2023-01-11T01:04:49.698Z,8.80
2023-01-11T01:07:52.557Z,8.70
2023-01-11T01:10:55.486Z,8.70
2023-01-11T01:14:17.740Z,8.70
2023-01-11T01:17:20.565Z,8.70
2023-01-11T01:20:23.743Z,8.70
2023-01-11T01:23:26.585Z,8.70
2023-01-11T01:26:29.692Z,10.10
2023-01-11T01:29:33.906Z,8.60
2023-01-11T01:32:36.816Z,7.90
2023-01-11T01:35:39.662Z,8.60
2023-01-11T01:38:42.532Z,7.60
2023-01-11T01:41:45.406Z,8.60
2023-01-11T01:45:02.280Z,8.60
2023-01-11T01:48:07.190Z,8.60
2023-01-11T01:51:14.281Z,8.60
2023-01-11T01:54:21.158Z,8.60
2023-01-11T01:57:29.938Z,9.20
2023-01-11T02:00:34.417Z,7.20
2023-01-11T02:03:37.644Z,8.60
2023-01-11T02:06:41.617Z,8.60
2023-01-11T02:09:49.560Z,10.30
2023-01-11T02:12:58.133Z,8.60
2023-01-11T02:16:08.635Z,8.50
2023-01-11T02:19:22.123Z,8.50
2023-01-11T02:23:11.077Z,8.50
2023-01-11T02:26:49.781Z,8.50
2023-01-11T02:30:06.356Z,8.50
2023-01-11T02:33:17.292Z,8.50
2023-01-11T02:36:30.452Z,8.50
2023-01-11T02:39:42.229Z,7.70
2023-01-11T02:43:17.670Z,8.50
2023-01-11T02:46:30.417Z,8.50
2023-01-11T02:49:38.955Z,9.10
2023-01-11T02:52:50.967Z,8.40
2023-01-11T02:55:58.076Z,9.90
2023-01-11T02:59:01.528Z,8.40
2023-01-11T03:02:06.241Z,8.40
2023-01-11T03:05:13.230Z,8.40
2023-01-11T03:08:51.902Z,8.40
2023-01-11T03:12:23.252Z,8.40
2023-01-11T03:16:11.099Z,9.10
2023-01-11T03:19:26.442Z,8.20
2023-01-11T03:22:35.493Z,10.10
2023-01-11T03:25:47.807Z,8.40
2023-01-11T03:28:58.062Z,10.70
2023-01-11T03:32:11.570Z,8.40
2023-01-11T03:35:21.174Z,8.40
2023-01-11T03:38:28.590Z,9.00
2023-01-11T03:41:36.837Z,8.40
2023-01-11T03:44:43.852Z,8.40
2023-01-11T03:47:46.908Z,8.20
2023-01-11T03:50:55.819Z,10.30
2023-01-11T03:53:59.991Z,8.40
2023-01-11T03:57:06.878Z,8.40
2023-01-11T04:00:11.007Z,8.40
2023-01-11T04:03:14.738Z,6.70
2023-01-11T04:06:19.764Z,8.40
2023-01-11T04:09:22.763Z,8.40
2023-01-11T04:12:25.634Z,8.40
2023-01-11T04:15:30.181Z,10.70
2023-01-11T04:18:33.015Z,8.50
2023-01-11T04:21:37.155Z,9.70
2023-01-11T04:24:40.043Z,10.70
2023-01-11T04:27:42.870Z,10.60
2023-01-11T04:30:46.140Z,10.70
2023-01-11T04:33:48.991Z,8.50
2023-01-11T04:36:53.238Z,6.60
2023-01-11T04:39:56.077Z,8.50
2023-01-11T04:43:02.103Z,8.60
2023-01-11T04:46:05.155Z,8.60
2023-01-11T04:49:08.020Z,10.90
2023-01-11T04:52:14.175Z,8.60
2023-01-11T04:55:17.239Z,7.20
2023-01-11T04:58:19.997Z,8.70
2023-01-11T05:01:22.829Z,8.70
2023-01-11T05:04:25.803Z,8.70
2023-01-11T05:07:30.031Z,9.60
2023-01-11T05:10:33.277Z,8.10
2023-01-11T05:13:45.395Z,8.70
2023-01-11T05:16:48.314Z,10.30
2023-01-11T05:19:51.106Z,10.90
2023-01-11T05:22:55.269Z,8.90
2023-01-11T05:25:58.107Z,9.30
2023-01-11T05:29:03.773Z,8.90
2023-01-11T05:32:06.992Z,10.80
2023-01-11T05:35:11.171Z,9.00
2023-01-11T05:38:15.439Z,7.80
2023-01-11T05:41:20.044Z,9.10
2023-01-11T05:44:40.705Z,9.20
2023-01-11T05:47:43.546Z,9.20
2023-01-11T05:50:51.975Z,9.20
2023-01-11T05:53:56.803Z,9.20
2023-01-11T05:56:59.633Z,9.20
2023-01-11T06:00:02.646Z,7.20
2023-01-11T06:03:05.529Z,9.00
2023-01-11T06:06:08.731Z,9.40
2023-01-11T06:09:12.884Z,9.40
2023-01-11T06:12:15.674Z,10.10
2023-01-11T06:15:18.487Z,7.70
2023-01-11T06:18:22.067Z,8.70
2023-01-11T06:21:25.107Z,9.60
2023-01-11T06:24:29.266Z,9.60
2023-01-11T06:27:32.049Z,8.90
2023-01-11T06:30:34.987Z,9.70
2023-01-11T06:33:37.853Z,9.70
2023-01-11T06:36:42.674Z,9.80
2023-01-11T06:39:46.925Z,11.20
2023-01-11T06:42:49.707Z,10.10
2023-01-11T06:45:52.813Z,8.70
2023-01-11T06:48:55.640Z,9.90
2023-01-11T06:51:58.428Z,9.90
2023-01-11T06:55:02.904Z,10.00
2023-01-11T06:58:05.775Z,10.00
2023-01-11T07:01:09.268Z,10.10
2023-01-11T07:04:13.173Z,10.10
2023-01-11T07:07:16.056Z,10.10
2023-01-11T07:10:20.393Z,10.20
2023-01-11T07:13:23.439Z,10.20
2023-01-11T07:16:26.588Z,12.30
2023-01-11T07:19:29.416Z,10.30
2023-01-11T07:22:34.798Z,10.50
2023-01-11T07:25:39.187Z,10.10
2023-01-11T07:28:41.977Z,10.50
2023-01-11T07:31:44.868Z,10.50
2023-01-11T07:34:47.926Z,10.60
2023-01-11T07:37:50.938Z,10.60
2023-01-11T07:40:55.194Z,10.70
2023-01-11T07:43:57.116Z,10.40
2023-01-11T07:47:00.020Z,10.60
2023-01-11T07:50:04.255Z,10.80
2023-01-11T07:53:08.381Z,10.80
2023-01-11T07:56:12.563Z,10.90
2023-01-11T07:59:15.386Z,11.00
2023-01-11T08:02:18.256Z,10.90
2023-01-11T08:05:22.300Z,10.90
2023-01-11T08:08:25.175Z,11.00
2023-01-11T08:11:46.900Z,10.90
2023-01-11T08:14:49.718Z,11.00
2023-01-11T08:17:52.610Z,11.10
2023-01-11T08:20:55.461Z,10.10
2023-01-11T08:24:00.025Z,9.90
2023-01-11T08:27:04.799Z,9.30
2023-01-11T08:30:08.662Z,11.10
2023-01-11T08:33:11.606Z,13.00
2023-01-11T08:36:14.541Z,13.20
2023-01-11T08:39:17.478Z,11.20
2023-01-11T08:42:21.608Z,11.20
2023-01-11T08:45:24.707Z,11.20
2023-01-11T08:48:27.518Z,11.20
2023-01-11T08:51:30.368Z,11.30
2023-01-11T08:54:33.194Z,12.10
2023-01-11T08:57:37.513Z,10.00
2023-01-11T09:00:40.860Z,11.30
2023-01-11T09:03:43.753Z,13.70
2023-01-11T09:06:46.865Z,11.40
2023-01-11T09:09:50.380Z,11.10
2023-01-11T09:12:54.736Z,13.40
2023-01-11T09:15:58.189Z,11.30
2023-01-11T09:19:01.026Z,13.30
2023-01-11T09:22:03.826Z,11.70
2023-01-11T09:25:08.040Z,10.30
2023-01-11T09:28:12.152Z,10.20
2023-01-11T09:31:15.071Z,11.80
2023-01-11T09:34:19.155Z,11.80
2023-01-11T09:37:22.760Z,11.90
2023-01-11T09:40:34.730Z,10.10
2023-01-11T09:43:45.153Z,12.00
2023-01-11T09:46:52.205Z,12.00
2023-01-11T09:49:58.872Z,9.70
2023-01-11T09:53:07.881Z,11.70
2023-01-11T09:56:14.705Z,11.60
2023-01-11T09:59:26.883Z,12.10
2023-01-11T10:02:38.336Z,12.10
2023-01-11T10:05:59.421Z,12.10
2023-01-11T10:18:31.764Z,12.20
2023-01-11T10:20:04.406Z,12.30
2023-01-11T10:23:14.907Z,13.70
2023-01-11T10:26:27.570Z,12.40
2023-01-11T10:29:59.480Z,12.40
2023-01-11T10:33:18.227Z,12.40
2023-01-11T10:36:51.669Z,13.40
2023-01-11T10:40:19.442Z,14.10
2023-01-11T10:43:25.389Z,12.70
2023-01-11T10:46:29.683Z,12.70
2023-01-11T10:49:43.145Z,12.80
2023-01-11T10:52:53.576Z,12.90
2023-01-11T10:56:06.746Z,12.90
2023-01-11T10:59:25.179Z,12.90
2023-01-11T11:02:47.412Z,13.00
2023-01-11T11:05:57.602Z,13.60
2023-01-11T11:09:08.588Z,14.10
2023-01-11T11:12:15.781Z,13.10
2023-01-11T11:15:26.092Z,13.20
2023-01-11T11:18:29.104Z,14.20
2023-01-11T11:21:39.255Z,13.30
2023-01-11T11:24:45.271Z,13.30
2023-01-11T11:27:51.160Z,13.30
2023-01-11T11:30:55.559Z,13.30
2023-01-11T11:33:58.576Z,13.40
2023-01-11T11:37:02.841Z,13.30
2023-01-11T11:40:06.827Z,13.40
2023-01-11T11:43:20.451Z,13.40
2023-01-11T11:46:27.533Z,13.40
2023-01-11T11:49:31.629Z,14.30
2023-01-11T11:52:35.936Z,13.30
2023-01-11T11:55:39.417Z,13.30
2023-01-11T11:58:43.316Z,13.50
2023-01-11T12:01:49.449Z,11.60
2023-01-11T12:04:53.634Z,12.00
2023-01-11T12:07:58.361Z,13.30
2023-01-11T12:11:03.811Z,13.30
2023-01-11T12:14:17.912Z,13.30
2023-01-11T12:17:24.747Z,13.30
2023-01-11T12:20:31.942Z,13.20
2023-01-11T12:23:36.163Z,13.20
2023-01-11T12:26:46.040Z,12.70
2023-01-11T12:29:58.749Z,13.20
2023-01-11T12:33:25.349Z,13.10
2023-01-11T12:36:37.107Z,13.20
2023-01-11T12:39:49.781Z,13.40
2023-01-11T12:43:08.837Z,13.10
2023-01-11T12:46:21.900Z,12.30
2023-01-11T12:49:35.898Z,15.60
2023-01-11T12:53:11.720Z,13.00
2023-01-11T12:56:32.481Z,13.00
2023-01-11T13:00:00.356Z,15.10
2023-01-11T13:03:34.692Z,13.00
2023-01-11T13:06:42.973Z,13.00
2023-01-11T13:10:01.027Z,13.00
2023-01-11T13:13:12.706Z,13.00
2023-01-11T13:16:22.527Z,13.20
2023-01-11T13:19:37.352Z,13.50
2023-01-11T13:22:46.086Z,14.40
2023-01-11T13:25:52.264Z,12.80
2023-01-11T13:29:02.517Z,12.80
2023-01-11T13:32:09.683Z,13.60
2023-01-11T13:35:18.290Z,12.70
2023-01-11T13:38:34.828Z,12.60
2023-01-11T13:41:41.977Z,12.60
2023-01-11T13:44:50.584Z,12.60
2023-01-11T13:47:56.751Z,11.70
2023-01-11T13:51:04.504Z,12.50
2023-01-11T13:54:13.660Z,12.40
2023-01-11T13:57:25.428Z,10.70
2023-01-11T14:00:38.315Z,12.30
2023-01-11T14:03:46.780Z,12.30
2023-01-11T14:07:07.227Z,12.30
2023-01-11T14:10:21.505Z,12.20
2023-01-11T14:14:04.471Z,12.20
2023-01-11T14:17:27.773Z,12.20
2023-01-11T14:20:38.285Z,12.20
2023-01-11T14:23:48.797Z,12.10
2023-01-11T14:27:22.666Z,11.00
2023-01-11T14:30:42.911Z,12.10
2023-01-11T14:34:17.342Z,12.00
2023-01-11T14:37:51.993Z,12.00
2023-01-11T14:41:17.244Z,12.00
2023-01-11T14:44:52.642Z,12.00
2023-01-11T14:48:06.042Z,11.60
2023-01-11T14:51:32.597Z,12.00
2023-01-11T14:54:39.752Z,12.00
2023-01-11T14:57:44.029Z,12.00
2023-01-11T15:01:11.525Z,11.90
2023-01-11T15:04:22.611Z,11.90
2023-01-11T15:07:36.406Z,11.80
2023-01-11T15:10:57.910Z,11.80
2023-01-11T15:14:04.349Z,11.70
2023-01-11T15:17:25.053Z,11.40
2023-01-11T15:20:28.643Z,11.60
2023-01-11T15:23:36.459Z,11.90
2023-01-11T15:26:49.346Z,11.60
2023-01-11T15:29:56.465Z,10.00
2023-01-11T15:33:29.490Z,11.50
2023-01-11T15:36:55.555Z,11.40
2023-01-11T15:40:04.853Z,11.40
2023-01-11T15:43:52.648Z,11.30
2023-01-11T15:47:17.267Z,11.30
2023-01-11T15:50:49.136Z,11.20
2023-01-11T15:54:13.668Z,11.10
2023-01-11T15:57:43.037Z,11.00
2023-01-11T16:01:18.416Z,10.90
2023-01-11T16:04:28.702Z,10.40
2023-01-11T16:07:41.596Z,10.80
2023-01-11T16:10:53.295Z,10.70
2023-01-11T16:14:32.737Z,10.70
2023-01-11T16:17:39.992Z,9.50
2023-01-11T16:20:56.677Z,10.50
2023-01-11T16:23:59.805Z,10.50
2023-01-11T16:27:04.543Z,10.40
2023-01-11T16:30:20.051Z,10.60
2023-01-11T16:33:27.289Z,10.30
2023-01-11T16:36:41.757Z,10.30
2023-01-11T16:39:45.366Z,10.20
2023-01-11T16:42:54.294Z,10.10
2023-01-11T16:45:58.606Z,10.20
2023-01-11T16:49:11.468Z,10.10
2023-01-11T16:52:48.423Z,9.00
2023-01-11T16:55:56.394Z,12.00
2023-01-11T16:59:08.571Z,11.40
2023-01-11T17:02:31.942Z,9.90
2023-01-11T17:05:35.581Z,9.90
2023-01-11T17:08:41.811Z,9.90
2023-01-11T17:11:49.980Z,9.80
2023-01-11T17:15:08.326Z,9.80
2023-01-11T17:18:17.871Z,9.80
2023-01-11T17:21:24.203Z,9.70
2023-01-11T17:24:34.570Z,9.70
2023-01-11T17:27:41.482Z,7.60
2023-01-11T17:30:45.872Z,8.50
2023-01-11T17:34:00.811Z,10.00
2023-01-11T17:37:14.004Z,9.60
2023-01-11T17:40:24.423Z,9.60
2023-01-11T17:43:46.695Z,9.50
2023-01-11T17:46:50.184Z,9.50
2023-01-11T17:49:56.533Z,9.00
2023-01-11T17:53:06.840Z,9.50
2023-01-11T17:56:38.123Z,11.40
2023-01-11T17:59:41.699Z,9.40
2023-01-11T18:02:45.834Z,9.30
2023-01-11T18:05:59.382Z,9.30
2023-01-11T18:09:06.941Z,11.70
2023-01-11T18:12:16.340Z,9.30
2023-01-11T18:15:24.992Z,9.20
2023-01-11T18:18:43.393Z,11.30
2023-01-11T18:21:55.839Z,9.20
2023-01-11T18:25:00.562Z,9.20
2023-01-11T18:28:39.067Z,9.20
2023-01-11T18:31:42.618Z,9.20
2023-01-11T18:34:48.366Z,9.30
2023-01-11T18:37:52.717Z,9.20
2023-01-11T18:40:58.243Z,9.10
2023-01-11T18:44:01.823Z,9.20
2023-01-11T18:47:16.793Z,9.20
2023-01-11T18:50:21.169Z,9.20
2023-01-11T18:53:25.414Z,9.20
2023-01-11T18:56:28.473Z,9.20
2023-01-11T18:59:31.326Z,9.20
2023-01-11T19:02:42.185Z,10.90
2023-01-11T19:05:46.512Z,9.20
2023-01-11T19:08:50.768Z,9.20
2023-01-11T19:11:53.757Z,10.80
2023-01-11T19:14:56.605Z,8.00
2023-01-11T19:21:09.212Z,11.70
2023-01-11T19:24:13.515Z,9.30
2023-01-11T19:27:16.664Z,9.20
2023-01-11T19:30:19.787Z,9.20
2023-01-11T19:33:22.908Z,9.20
2023-01-11T19:36:29.102Z,9.20
2023-01-11T19:39:33.421Z,9.20
2023-01-11T19:42:36.830Z,9.20
2023-01-11T19:45:41.960Z,9.20
2023-01-11T19:48:46.884Z,9.10
2023-01-11T19:51:51.762Z,11.30
2023-01-11T19:54:59.263Z,9.10
2023-01-11T19:58:05.990Z,10.80
2023-01-11T20:01:13.300Z,9.10
2023-01-11T20:04:17.047Z,9.20
2023-01-11T20:07:20.324Z,9.20
2023-01-11T20:10:24.572Z,9.20
2023-01-11T20:13:27.374Z,9.30
2023-01-11T20:16:30.241Z,9.30
2023-01-11T20:19:33.207Z,9.40
2023-01-11T20:22:36.246Z,8.80
2023-01-11T20:25:41.346Z,9.50
2023-01-11T20:28:45.703Z,9.60
2023-01-11T20:31:50.333Z,9.60
2023-01-11T20:34:54.489Z,9.70
2023-01-11T20:37:57.363Z,12.10
2023-01-11T20:41:01.543Z,9.80
2023-01-11T20:44:05.333Z,9.90
2023-01-11T20:47:08.118Z,9.90
2023-01-11T20:50:11.572Z,9.90
2023-01-11T20:53:14.981Z,9.90
2023-01-11T20:56:19.591Z,10.00
2023-01-11T20:59:22.479Z,7.80
2023-01-11T21:02:25.398Z,10.00
2023-01-11T21:05:28.252Z,10.00
2023-01-11T21:08:31.100Z,12.60
2023-01-11T21:11:35.985Z,10.10
2023-01-11T21:14:38.836Z,10.10
2023-01-11T21:17:41.719Z,10.10
2023-01-11T21:20:47.676Z,10.10
2023-01-11T21:23:54.389Z,10.10
2023-01-11T21:26:58.883Z,10.10
2023-01-11T21:30:01.765Z,10.20
2023-01-11T21:33:04.661Z,9.80
2023-01-11T21:36:09.812Z,10.20
2023-01-11T21:39:14.004Z,10.20
2023-01-11T21:42:18.355Z,7.90
2023-01-11T21:45:21.236Z,10.20
2023-01-11T21:48:24.179Z,10.10
2023-01-11T21:51:29.669Z,10.10
2023-01-11T21:54:32.677Z,10.00
2023-01-11T21:57:36.873Z,10.00
2023-01-11T22:00:39.924Z,10.00
2023-01-11T22:03:43.112Z,12.10
2023-01-11T22:06:51.139Z,10.00
2023-01-11T22:10:04.557Z,10.00
2023-01-11T22:13:12.833Z,10.00
2023-01-11T22:16:18.301Z,8.70
2023-01-11T22:19:21.147Z,10.00
2023-01-11T22:22:24.003Z,10.00
2023-01-11T22:25:26.934Z,10.00
2023-01-11T22:28:31.149Z,10.00
2023-01-11T22:31:34.800Z,9.90
2023-01-11T22:34:39.168Z,8.60
2023-01-11T22:37:41.989Z,8.90
2023-01-11T22:40:45.767Z,9.70
2023-01-11T22:43:50.316Z,9.70
2023-01-11T22:46:53.275Z,9.60
2023-01-11T22:49:56.896Z,9.60
2023-01-11T22:53:01.270Z,9.60
2023-01-11T22:56:06.976Z,9.40
2023-01-11T22:59:11.447Z,9.50
2023-01-11T23:02:14.348Z,9.50
2023-01-11T23:05:17.231Z,9.40
2023-01-11T23:08:27.254Z,9.40
2023-01-11T23:11:48.836Z,9.30
2023-01-11T23:14:53.180Z,10.40
2023-01-11T23:18:00.384Z,9.30
2023-01-11T23:21:04.115Z,9.60
2023-01-11T23:24:07.537Z,9.20
2023-01-11T23:27:10.575Z,9.20
2023-01-11T23:30:15.315Z,9.20
2023-01-11T23:33:18.152Z,6.90
2023-01-11T23:36:22.314Z,8.00
2023-01-11T23:39:25.174Z,9.10
2023-01-11T23:42:27.034Z,10.50
2023-01-11T23:45:34.115Z,10.50
2023-01-11T23:48:36.172Z,9.10
2023-01-11T23:51:39.379Z,6.90
2023-01-11T23:54:43.354Z,9.10
2023-01-11T23:58:08.549Z,9.10
